createdAt,value
2024-05-09T00:00:36.475Z,6.82
2024-05-09T00:02:15.516Z,6.84
2024-05-09T00:03:49.235Z,6.84
2024-05-09T00:05:25.455Z,6.74
2024-05-09T00:07:01.455Z,6.69
2024-05-09T00:08:35.154Z,6.51
2024-05-09T00:10:18.279Z,6.57
2024-05-09T00:11:58.855Z,6.56
2024-05-09T00:13:35.138Z,6.60
2024-05-09T00:15:09.294Z,6.69
2024-05-09T00:16:48.609Z,6.72
2024-05-09T00:18:23.800Z,6.77
2024-05-09T00:20:00.069Z,6.60
2024-05-09T00:21:34.888Z,6.50
2024-05-09T00:23:12.407Z,6.47
2024-05-09T00:24:46.684Z,6.44
2024-05-09T00:26:23.062Z,6.48
2024-05-09T00:27:56.368Z,6.35
2024-05-09T00:29:32.622Z,6.33
2024-05-09T00:31:05.947Z,6.30
2024-05-09T00:32:44.638Z,6.28
2024-05-09T00:34:20.895Z,6.34
2024-05-09T00:35:54.185Z,6.23
2024-05-09T00:37:30.032Z,6.32
2024-05-09T00:39:03.616Z,6.34
2024-05-09T00:40:42.540Z,6.31
2024-05-09T00:42:19.522Z,6.24
2024-05-09T00:43:53.069Z,6.28
2024-05-09T00:45:28.875Z,6.22
2024-05-09T00:47:02.108Z,6.15
2024-05-09T00:48:40.842Z,6.07
2024-05-09T00:50:19.387Z,6.14
2024-05-09T00:52:02.376Z,5.97
2024-05-09T00:53:35.704Z,5.93
2024-05-09T00:55:12.120Z,5.95
2024-05-09T00:56:45.292Z,5.90
2024-05-09T00:58:25.785Z,6.02
2024-05-09T01:00:00.543Z,6.08
2024-05-09T01:01:37.142Z,6.01
2024-05-09T01:03:12.492Z,6.12
2024-05-09T01:04:53.567Z,6.24
2024-05-09T01:06:27.166Z,6.20
2024-05-09T01:08:03.450Z,6.22
2024-05-09T01:09:37.039Z,6.14
2024-05-09T01:11:12.983Z,6.09
2024-05-09T01:12:46.252Z,6.13
2024-05-09T01:14:22.572Z,6.05
2024-05-09T01:15:55.939Z,6.01
2024-05-09T01:17:32.384Z,5.98
2024-05-09T01:19:15.131Z,5.96
2024-05-09T01:20:53.778Z,5.95
2024-05-09T01:22:30.955Z,5.91
2024-05-09T01:24:07.287Z,5.93
2024-05-09T01:25:44.138Z,5.90
2024-05-09T01:27:18.119Z,5.90
2024-05-09T01:28:54.111Z,5.82
2024-05-09T01:30:34.178Z,5.84
2024-05-09T01:32:12.360Z,5.85
2024-05-09T01:33:45.927Z,5.84
2024-05-09T01:35:23.811Z,5.85
2024-05-09T01:36:59.684Z,5.77
2024-05-09T01:38:33.149Z,5.83
2024-05-09T01:40:18.421Z,5.86
2024-05-09T01:41:55.677Z,6.02
2024-05-09T01:43:31.733Z,6.00
2024-05-09T01:45:06.150Z,6.10
2024-05-09T01:46:42.041Z,6.20
2024-05-09T01:48:18.205Z,6.29
2024-05-09T01:49:51.824Z,6.33
2024-05-09T01:51:27.716Z,6.37
2024-05-09T01:53:01.205Z,6.43
2024-05-09T01:54:37.851Z,6.44
2024-05-09T01:56:16.460Z,6.53
2024-05-09T01:57:51.470Z,6.49
2024-05-09T01:59:27.812Z,6.54
2024-05-09T02:01:03.814Z,6.52
2024-05-09T02:02:37.111Z,6.47
2024-05-09T02:04:13.476Z,6.53
2024-05-09T02:05:50.509Z,6.53
2024-05-09T02:07:26.614Z,6.54
2024-05-09T02:08:59.938Z,6.47
2024-05-09T02:10:36.116Z,6.52
2024-05-09T02:12:15.059Z,6.52
2024-05-09T02:13:48.332Z,6.55
2024-05-09T02:15:24.590Z,6.59
2024-05-09T02:16:57.795Z,6.57
2024-05-09T02:18:33.719Z,6.55
2024-05-09T02:20:13.106Z,6.50
2024-05-09T02:21:51.922Z,6.49
2024-05-09T02:23:27.963Z,6.50
2024-05-09T02:25:04.449Z,6.52
2024-05-09T02:26:38.089Z,6.52
2024-05-09T02:28:16.947Z,6.54
2024-05-09T02:29:50.127Z,6.48
2024-05-09T02:31:26.463Z,6.46
2024-05-09T02:32:59.762Z,6.41
2024-05-09T02:34:35.755Z,6.42
2024-05-09T02:36:10.933Z,6.33
2024-05-09T02:37:46.914Z,6.35
2024-05-09T02:39:20.249Z,6.30
2024-05-09T02:40:53.797Z,6.28
2024-05-09T02:42:29.799Z,6.21
2024-05-09T02:44:08.612Z,6.22
2024-05-09T02:45:42.263Z,6.19
2024-05-09T02:47:18.253Z,6.17
2024-05-09T02:48:51.472Z,6.19
2024-05-09T02:50:34.157Z,6.13
2024-05-09T02:52:14.645Z,6.19
2024-05-09T02:53:47.858Z,6.26
2024-05-09T02:55:21.014Z,6.21
2024-05-09T02:56:57.297Z,6.26
2024-05-09T02:58:30.507Z,6.35
2024-05-09T03:00:12.112Z,6.39
2024-05-09T03:01:54.147Z,6.49
2024-05-09T03:03:27.985Z,6.48
2024-05-09T03:05:01.481Z,6.38
2024-05-09T03:06:37.446Z,6.39
2024-05-09T03:08:11.257Z,6.41
2024-05-09T03:09:49.653Z,6.40
2024-05-09T03:11:23.432Z,6.39
2024-05-09T03:12:59.251Z,6.42
2024-05-09T03:14:35.366Z,6.34
2024-05-09T03:16:11.197Z,6.42
2024-05-09T03:17:47.222Z,6.42
2024-05-09T03:19:22.765Z,6.56
2024-05-09T03:20:56.516Z,6.58
2024-05-09T03:22:32.230Z,6.72
2024-05-09T03:24:06.230Z,6.61
2024-05-09T03:25:39.711Z,6.53
2024-05-09T03:27:15.870Z,6.58
2024-05-09T03:28:48.867Z,6.49
2024-05-09T03:30:31.083Z,6.61
2024-05-09T03:32:18.482Z,6.68
2024-05-09T03:33:51.638Z,6.67
2024-05-09T03:35:24.906Z,6.56
2024-05-09T03:37:00.435Z,6.56
2024-05-09T03:38:38.411Z,6.56
2024-05-09T03:40:23.343Z,6.61
2024-05-09T03:41:59.141Z,6.58
2024-05-09T03:43:35.184Z,6.54
2024-05-09T03:45:08.781Z,6.65
2024-05-09T03:46:44.436Z,6.66
2024-05-09T03:48:20.472Z,6.51
2024-05-09T03:49:53.535Z,6.45
2024-05-09T03:51:29.574Z,6.50
2024-05-09T03:53:02.668Z,6.42
2024-05-09T03:54:35.750Z,6.42
2024-05-09T03:56:11.641Z,6.53
2024-05-09T03:57:45.018Z,6.48
2024-05-09T03:59:18.116Z,6.39
2024-05-09T04:00:53.706Z,6.46
2024-05-09T04:02:26.808Z,6.49
2024-05-09T04:04:05.741Z,6.44
2024-05-09T04:05:39.788Z,6.44
2024-05-09T04:07:16.065Z,6.49
2024-05-09T04:08:50.728Z,6.49
2024-05-09T04:10:31.323Z,6.55
2024-05-09T04:12:10.882Z,6.60
2024-05-09T04:13:44.429Z,6.71
2024-05-09T04:15:17.414Z,6.72
2024-05-09T04:16:53.496Z,6.51
2024-05-09T04:18:28.969Z,6.72
2024-05-09T04:20:08.325Z,6.64
2024-05-09T04:21:44.160Z,6.79
2024-05-09T04:23:17.693Z,6.96
2024-05-09T04:24:53.479Z,6.92
2024-05-09T04:26:29.204Z,6.90
2024-05-09T04:28:02.353Z,7.04
2024-05-09T04:29:37.927Z,7.10
2024-05-09T04:31:13.519Z,7.00
2024-05-09T04:32:46.698Z,7.13
2024-05-09T04:34:19.972Z,6.98
2024-05-09T04:35:58.964Z,7.06
2024-05-09T04:37:32.099Z,7.21
2024-05-09T04:39:05.076Z,7.24
2024-05-09T04:40:40.680Z,7.15
2024-05-09T04:42:14.220Z,7.19
2024-05-09T04:43:47.230Z,7.24
2024-05-09T04:45:22.933Z,7.16
2024-05-09T04:46:56.352Z,7.34
2024-05-09T04:48:32.558Z,7.52
2024-05-09T04:50:11.416Z,7.42
2024-05-09T04:51:47.314Z,7.40
2024-05-09T04:53:22.952Z,7.39
2024-05-09T04:54:58.960Z,7.47
2024-05-09T04:56:32.170Z,7.46
2024-05-09T04:58:10.780Z,7.45
2024-05-09T04:59:43.761Z,7.68
2024-05-09T05:01:19.894Z,7.65
2024-05-09T05:02:53.883Z,7.73
2024-05-09T05:04:27.068Z,7.91
2024-05-09T05:06:02.829Z,8.05
2024-05-09T05:07:38.932Z,8.23
2024-05-09T05:09:11.836Z,8.25
2024-05-09T05:10:48.872Z,8.29
2024-05-09T05:12:43.670Z,8.18
2024-05-09T05:14:16.825Z,8.37
2024-05-09T05:15:56.609Z,8.50
2024-05-09T05:17:31.004Z,8.70
2024-05-09T05:19:10.914Z,8.60
2024-05-09T05:20:45.276Z,8.80
2024-05-09T05:22:18.331Z,8.90
2024-05-09T05:23:56.548Z,8.84
2024-05-09T05:25:30.074Z,8.98
2024-05-09T05:27:03.111Z,8.77
2024-05-09T05:28:38.729Z,8.97
2024-05-09T05:30:17.871Z,9.18
2024-05-09T05:31:55.193Z,9.36
2024-05-09T05:33:31.136Z,9.60
2024-05-09T05:35:05.037Z,9.45
2024-05-09T05:36:38.086Z,9.55
2024-05-09T05:38:14.506Z,9.64
2024-05-09T05:39:52.591Z,9.44
2024-05-09T05:41:28.242Z,9.69
2024-05-09T05:43:01.285Z,9.82
2024-05-09T05:44:34.940Z,9.85
2024-05-09T05:46:10.698Z,9.84
2024-05-09T05:47:44.003Z,10.48
2024-05-09T05:49:17.321Z,10.67
2024-05-09T05:50:53.615Z,11.02
2024-05-09T05:52:26.652Z,10.83
2024-05-09T05:53:59.566Z,10.97
2024-05-09T05:55:38.039Z,11.40
2024-05-09T05:57:11.033Z,12.38
2024-05-09T05:58:46.675Z,11.98
2024-05-09T06:00:29.218Z,14.01
2024-05-09T06:02:09.696Z,15.40
2024-05-09T06:03:46.629Z,16.02
2024-05-09T06:05:21.544Z,17.76
2024-05-09T06:06:54.587Z,18.17
2024-05-09T06:08:30.640Z,18.80
2024-05-09T06:10:09.262Z,19.16
2024-05-09T06:11:49.807Z,20.13
2024-05-09T06:13:25.666Z,21.26
2024-05-09T06:15:00.482Z,22.14
2024-05-09T06:16:33.856Z,22.67
2024-05-09T06:18:11.482Z,22.82
2024-05-09T06:19:45.610Z,23.11
2024-05-09T06:21:18.702Z,23.32
2024-05-09T06:22:54.762Z,22.93
2024-05-09T06:24:27.870Z,22.81
2024-05-09T06:26:00.907Z,22.82
2024-05-09T06:27:39.259Z,23.21
2024-05-09T06:29:14.531Z,23.48
2024-05-09T06:30:50.057Z,24.26
2024-05-09T06:32:23.125Z,24.14
2024-05-09T06:33:58.388Z,24.26
2024-05-09T06:35:34.504Z,23.60
2024-05-09T06:37:08.027Z,24.34
2024-05-09T06:38:43.730Z,24.08
2024-05-09T06:40:21.423Z,22.93
2024-05-09T06:41:59.008Z,23.24
2024-05-09T06:43:37.381Z,23.86
2024-05-09T06:45:10.579Z,24.66
2024-05-09T06:46:45.300Z,24.35
2024-05-09T06:48:22.660Z,26.39
2024-05-09T06:49:56.110Z,26.59
2024-05-09T06:51:29.111Z,26.14
2024-05-09T06:53:04.741Z,27.11
2024-05-09T06:54:38.180Z,27.07
2024-05-09T06:56:13.859Z,25.21
2024-05-09T06:57:46.883Z,26.17
2024-05-09T06:59:24.967Z,26.75
2024-05-09T07:01:01.388Z,25.00
2024-05-09T07:02:34.423Z,27.18
2024-05-09T07:04:10.245Z,27.81
2024-05-09T07:05:43.669Z,27.62
2024-05-09T07:07:17.077Z,27.21
2024-05-09T07:08:54.148Z,29.28
2024-05-09T07:10:33.084Z,29.00
2024-05-09T07:12:08.768Z,26.67
2024-05-09T07:13:45.178Z,26.33
2024-05-09T07:15:20.965Z,27.33
2024-05-09T07:16:56.874Z,27.85
2024-05-09T07:18:31.940Z,28.17
2024-05-09T07:20:11.703Z,28.98
2024-05-09T07:21:44.942Z,28.75
2024-05-09T07:23:18.697Z,29.45
2024-05-09T07:24:55.849Z,30.28
2024-05-09T07:26:29.404Z,30.15
2024-05-09T07:28:04.072Z,29.39
2024-05-09T07:29:39.907Z,28.65
2024-05-09T07:31:16.042Z,28.60
2024-05-09T07:32:52.831Z,29.77
2024-05-09T07:34:25.911Z,30.80
2024-05-09T07:36:01.643Z,28.88
2024-05-09T07:37:34.605Z,29.30
2024-05-09T07:39:08.539Z,30.20
2024-05-09T07:40:44.230Z,30.17
2024-05-09T07:42:17.367Z,30.30
2024-05-09T07:43:52.950Z,29.75
2024-05-09T07:45:43.327Z,29.55
2024-05-09T07:48:56.515Z,30.76
2024-05-09T07:51:02.844Z,30.98
2024-05-09T07:53:34.626Z,30.00
2024-05-09T07:54:42.801Z,29.59
2024-05-09T07:56:16.654Z,29.64
2024-05-09T07:57:49.866Z,30.76
2024-05-09T07:59:25.515Z,29.85
2024-05-09T08:00:58.687Z,30.91
2024-05-09T08:02:34.798Z,31.93
2024-05-09T08:04:10.704Z,30.91
2024-05-09T08:05:43.812Z,31.53
2024-05-09T08:07:17.868Z,32.61
2024-05-09T08:08:54.200Z,31.32
2024-05-09T08:10:29.025Z,32.65
2024-05-09T08:12:02.361Z,31.81
2024-05-09T08:13:38.116Z,32.46
2024-05-09T08:15:12.007Z,32.40
2024-05-09T08:16:47.776Z,33.68
2024-05-09T08:18:23.681Z,32.17
2024-05-09T08:19:59.301Z,33.05
2024-05-09T08:21:32.854Z,34.72
2024-05-09T08:23:08.849Z,32.90
2024-05-09T08:24:42.634Z,31.93
2024-05-09T08:26:15.772Z,32.44
2024-05-09T08:27:51.913Z,34.19
2024-05-09T08:29:25.303Z,33.77
2024-05-09T08:30:58.341Z,33.59
2024-05-09T08:32:35.365Z,34.09
2024-05-09T08:34:12.691Z,32.92
2024-05-09T08:35:48.862Z,32.49
2024-05-09T08:37:27.844Z,32.16
2024-05-09T08:39:06.731Z,28.97
2024-05-09T08:40:39.812Z,27.37
2024-05-09T08:42:16.869Z,27.07
2024-05-09T08:43:52.589Z,26.17
2024-05-09T08:45:26.501Z,25.79
2024-05-09T08:47:00.328Z,28.07
2024-05-09T08:48:39.396Z,29.61
2024-05-09T08:50:28.375Z,28.74
2024-05-09T08:52:12.115Z,26.93
2024-05-09T08:53:45.259Z,24.15
2024-05-09T08:55:18.520Z,24.92
2024-05-09T08:56:54.783Z,24.55
2024-05-09T08:58:30.860Z,24.17
2024-05-09T09:00:10.001Z,23.85
2024-05-09T09:01:50.194Z,23.90
2024-05-09T09:03:26.875Z,25.98
2024-05-09T09:05:06.044Z,25.65
2024-05-09T09:06:46.270Z,25.74
2024-05-09T09:08:20.495Z,25.96
2024-05-09T09:09:54.571Z,26.56
2024-05-09T09:11:30.733Z,26.06
2024-05-09T09:13:05.103Z,26.30
2024-05-09T09:14:38.737Z,27.90
2024-05-09T09:16:14.321Z,28.07
2024-05-09T09:17:55.387Z,27.71
2024-05-09T09:19:28.535Z,27.17
2024-05-09T09:21:04.931Z,26.60
2024-05-09T09:22:40.558Z,25.34
2024-05-09T09:24:14.679Z,26.32
2024-05-09T09:25:50.533Z,26.44
2024-05-09T09:27:23.885Z,27.61
2024-05-09T09:29:01.213Z,28.40
2024-05-09T09:30:38.260Z,29.34
2024-05-09T09:32:11.915Z,29.74
2024-05-09T09:33:47.881Z,28.91
2024-05-09T09:35:22.776Z,29.51
2024-05-09T09:36:59.183Z,28.77
2024-05-09T09:38:39.840Z,28.74
2024-05-09T09:40:15.624Z,28.00
2024-05-09T09:41:52.080Z,28.03
2024-05-09T09:43:29.921Z,28.17
2024-05-09T09:45:05.572Z,27.94
2024-05-09T09:46:43.377Z,26.34
2024-05-09T09:48:17.120Z,25.18
2024-05-09T09:49:55.127Z,27.35
2024-05-09T09:51:31.144Z,27.69
2024-05-09T09:53:10.032Z,27.59
2024-05-09T09:54:48.620Z,27.82
2024-05-09T09:56:25.537Z,28.31
2024-05-09T09:58:01.491Z,28.50
2024-05-09T09:59:35.368Z,27.95
2024-05-09T10:01:11.210Z,28.32
2024-05-09T10:02:44.768Z,28.48
2024-05-09T10:04:21.014Z,28.48
2024-05-09T10:05:55.049Z,29.17
2024-05-09T10:07:29.703Z,28.76
2024-05-09T10:09:06.210Z,29.50
2024-05-09T10:10:47.582Z,31.38
2024-05-09T10:12:23.862Z,32.18
2024-05-09T10:13:57.594Z,30.65
2024-05-09T10:15:46.481Z,31.11
2024-05-09T10:17:20.933Z,29.95
2024-05-09T10:18:54.226Z,28.66
2024-05-09T10:20:32.661Z,27.97
2024-05-09T10:22:09.320Z,27.90
2024-05-09T10:23:44.433Z,27.50
2024-05-09T10:25:20.480Z,27.63
2024-05-09T10:26:56.230Z,28.77
2024-05-09T10:28:30.354Z,28.07
2024-05-09T10:30:14.625Z,27.71
2024-05-09T10:31:54.172Z,29.05
2024-05-09T10:33:37.133Z,29.80
2024-05-09T10:35:15.114Z,29.33
2024-05-09T10:36:55.245Z,26.99
2024-05-09T10:38:28.697Z,27.11
2024-05-09T10:40:11.937Z,27.54
2024-05-09T10:41:50.161Z,30.19
2024-05-09T10:43:26.070Z,28.40
2024-05-09T10:45:03.035Z,29.73
2024-05-09T10:46:38.142Z,29.31
2024-05-09T10:48:14.642Z,27.12
2024-05-09T10:49:48.758Z,24.79
2024-05-09T10:51:21.895Z,23.61
2024-05-09T10:52:57.939Z,23.95
2024-05-09T10:54:35.973Z,23.03
2024-05-09T10:56:09.509Z,21.94
2024-05-09T10:57:45.182Z,21.99
2024-05-09T10:59:21.200Z,21.85
2024-05-09T11:00:55.830Z,22.43
2024-05-09T11:02:32.087Z,22.70
2024-05-09T11:04:05.766Z,23.61
2024-05-09T11:05:45.814Z,24.60
2024-05-09T11:07:20.193Z,25.76
2024-05-09T11:08:56.003Z,26.15
2024-05-09T11:10:34.210Z,26.14
2024-05-09T11:12:09.348Z,25.92
2024-05-09T11:13:45.294Z,26.54
2024-05-09T11:15:20.946Z,25.98
2024-05-09T11:16:59.505Z,25.51
2024-05-09T11:18:38.851Z,26.30
2024-05-09T11:20:19.571Z,27.17
2024-05-09T11:22:02.816Z,26.25
2024-05-09T11:23:38.716Z,25.83
2024-05-09T11:25:11.862Z,26.05
2024-05-09T11:26:47.541Z,26.04
2024-05-09T11:28:24.532Z,26.08
2024-05-09T11:29:58.896Z,26.24
2024-05-09T11:31:48.438Z,24.96
2024-05-09T11:33:22.283Z,25.22
2024-05-09T11:34:55.256Z,24.52
2024-05-09T11:36:31.250Z,24.21
2024-05-09T11:38:04.783Z,24.24
2024-05-09T11:39:37.902Z,23.86
2024-05-09T11:41:19.589Z,24.45
2024-05-09T11:42:53.394Z,24.45
2024-05-09T11:44:26.921Z,25.14
2024-05-09T11:46:03.791Z,25.26
2024-05-09T11:47:39.898Z,24.21
2024-05-09T11:49:13.329Z,24.07
2024-05-09T11:50:49.019Z,24.56
2024-05-09T11:52:22.272Z,25.46
2024-05-09T11:53:55.653Z,26.30
2024-05-09T11:55:33.581Z,26.62
2024-05-09T11:57:06.746Z,26.02
2024-05-09T11:58:42.752Z,24.83
2024-05-09T12:00:28.915Z,24.12
2024-05-09T12:02:07.720Z,23.15
2024-05-09T12:03:46.586Z,22.60
2024-05-09T12:05:19.827Z,21.79
2024-05-09T12:06:55.749Z,21.51
2024-05-09T12:08:28.763Z,21.42
2024-05-09T12:10:02.355Z,20.96
2024-05-09T12:11:37.976Z,21.25
2024-05-09T12:13:11.252Z,21.11
2024-05-09T12:14:47.127Z,21.11
2024-05-09T12:16:20.743Z,21.18
2024-05-09T12:17:59.064Z,21.68
2024-05-09T12:19:37.688Z,21.55
2024-05-09T12:21:17.083Z,21.60
2024-05-09T12:22:50.215Z,21.57
2024-05-09T12:24:25.111Z,21.63
2024-05-09T12:26:01.039Z,21.94
2024-05-09T12:27:36.424Z,22.28
2024-05-09T12:29:09.537Z,22.73
2024-05-09T12:30:45.646Z,22.98
2024-05-09T12:32:18.834Z,22.60
2024-05-09T12:33:54.433Z,22.62
2024-05-09T12:35:33.192Z,23.18
2024-05-09T12:37:06.686Z,23.62
2024-05-09T12:38:41.082Z,23.87
2024-05-09T12:40:23.203Z,24.09
2024-05-09T12:42:05.479Z,23.71
2024-05-09T12:43:41.400Z,23.56
2024-05-09T12:45:14.454Z,23.66
2024-05-09T12:46:47.659Z,23.59
2024-05-09T12:48:23.596Z,22.84
2024-05-09T12:49:57.467Z,22.80
2024-05-09T12:51:36.150Z,22.34
2024-05-09T12:53:09.141Z,21.89
2024-05-09T12:54:42.273Z,22.10
2024-05-09T12:56:18.234Z,21.63
2024-05-09T12:57:51.448Z,21.60
2024-05-09T12:59:27.172Z,22.57
2024-05-09T13:01:00.559Z,22.85
2024-05-09T13:02:36.782Z,22.47
2024-05-09T13:04:09.983Z,22.44
2024-05-09T13:05:46.566Z,22.59
2024-05-09T13:07:22.653Z,22.01
2024-05-09T13:08:56.335Z,22.20
2024-05-09T13:10:33.437Z,22.80
2024-05-09T13:12:07.014Z,22.84
2024-05-09T13:13:43.030Z,22.93
2024-05-09T13:15:16.010Z,22.11
2024-05-09T13:16:49.115Z,22.04
2024-05-09T13:18:25.215Z,21.91
2024-05-09T13:19:58.454Z,21.96
2024-05-09T13:21:31.525Z,21.73
2024-05-09T13:23:10.013Z,21.79
2024-05-09T13:24:43.318Z,21.13
2024-05-09T13:26:18.777Z,21.29
2024-05-09T13:27:54.867Z,21.45
2024-05-09T13:29:28.314Z,21.77
2024-05-09T13:31:04.543Z,22.45
2024-05-09T13:32:37.808Z,22.89
2024-05-09T13:34:13.403Z,23.16
2024-05-09T13:35:50.984Z,23.78
2024-05-09T13:37:24.667Z,23.53
2024-05-09T13:39:00.846Z,23.44
2024-05-09T13:40:36.940Z,23.23
2024-05-09T13:42:10.079Z,22.88
2024-05-09T13:43:45.789Z,22.40
2024-05-09T13:45:18.763Z,21.63
2024-05-09T13:46:52.399Z,21.98
2024-05-09T13:48:28.760Z,21.88
2024-05-09T13:50:02.798Z,22.66
2024-05-09T13:51:38.228Z,22.91
2024-05-09T13:53:13.923Z,22.99
2024-05-09T13:54:49.559Z,22.76
2024-05-09T13:56:22.630Z,22.51
2024-05-09T13:57:58.943Z,23.02
2024-05-09T13:59:33.684Z,23.27
2024-05-09T14:01:07.314Z,22.72
2024-05-09T14:02:43.219Z,22.38
2024-05-09T14:04:17.787Z,22.87
2024-05-09T14:05:51.964Z,22.35
2024-05-09T14:07:28.104Z,22.51
2024-05-09T14:09:01.443Z,22.30
2024-05-09T14:10:44.039Z,21.62
2024-05-09T14:12:17.624Z,21.11
2024-05-09T14:13:53.358Z,21.06
2024-05-09T14:15:29.029Z,20.61
2024-05-09T14:17:02.170Z,20.39
2024-05-09T14:18:36.017Z,20.53
2024-05-09T14:20:14.203Z,20.53
2024-05-09T14:21:49.630Z,20.37
2024-05-09T14:23:24.817Z,20.37
2024-05-09T14:25:00.865Z,20.60
2024-05-09T14:26:37.223Z,20.72
2024-05-09T14:28:10.446Z,20.81
2024-05-09T14:29:46.005Z,20.95
2024-05-09T14:31:19.255Z,21.49
2024-05-09T14:32:52.458Z,21.74
2024-05-09T14:34:28.276Z,21.71
2024-05-09T14:36:01.591Z,21.93
2024-05-09T14:37:39.647Z,22.18
2024-05-09T14:39:12.716Z,22.17
2024-05-09T14:40:45.958Z,21.74
2024-05-09T14:42:24.454Z,21.15
2024-05-09T14:43:57.415Z,21.11
2024-05-09T14:45:30.543Z,20.94
2024-05-09T14:47:06.841Z,21.36
2024-05-09T14:48:42.493Z,21.40
2024-05-09T14:50:23.756Z,21.43
2024-05-09T14:52:04.283Z,21.55
2024-05-09T14:53:37.303Z,21.19
2024-05-09T14:55:12.308Z,21.00
2024-05-09T14:56:48.503Z,21.28
2024-05-09T14:58:24.733Z,20.96
2024-05-09T14:59:57.852Z,20.96
2024-05-09T15:01:33.827Z,20.89
2024-05-09T15:03:07.033Z,21.10
2024-05-09T15:04:41.962Z,21.02
2024-05-09T15:06:17.927Z,20.72
2024-05-09T15:07:51.212Z,20.67
2024-05-09T15:09:26.958Z,20.65
2024-05-09T15:11:00.021Z,20.84
2024-05-09T15:12:33.336Z,21.11
2024-05-09T15:14:11.989Z,21.07
2024-05-09T15:15:45.143Z,21.07
2024-05-09T15:17:18.375Z,21.08
2024-05-09T15:18:54.572Z,20.90
2024-05-09T15:20:34.387Z,20.65
2024-05-09T15:22:11.704Z,20.60
2024-05-09T15:23:47.991Z,20.65
2024-05-09T15:25:20.959Z,20.86
2024-05-09T15:26:54.250Z,20.95
2024-05-09T15:28:30.178Z,20.80
2024-05-09T15:30:10.517Z,20.78
2024-05-09T15:31:46.509Z,20.67
2024-05-09T15:33:21.475Z,20.53
2024-05-09T15:34:54.774Z,20.47
2024-05-09T15:36:30.367Z,20.34
2024-05-09T15:38:04.451Z,20.40
2024-05-09T15:39:40.467Z,20.62
2024-05-09T15:41:13.659Z,20.69
2024-05-09T15:42:49.513Z,20.66
2024-05-09T15:44:22.617Z,20.74
2024-05-09T15:45:58.685Z,20.31
2024-05-09T15:47:38.018Z,20.30
2024-05-09T15:49:11.697Z,20.32
2024-05-09T15:50:45.298Z,20.37
2024-05-09T15:52:21.144Z,20.24
2024-05-09T15:53:54.188Z,20.31
2024-05-09T15:55:28.189Z,20.29
2024-05-09T15:57:04.139Z,20.30
2024-05-09T15:58:37.347Z,20.26
2024-05-09T16:00:21.461Z,20.29
2024-05-09T16:02:04.126Z,20.21
2024-05-09T16:03:37.494Z,20.15
2024-05-09T16:05:10.705Z,20.25
2024-05-09T16:06:48.366Z,20.38
2024-05-09T16:08:21.634Z,20.22
2024-05-09T16:09:54.859Z,20.22
2024-05-09T16:11:30.549Z,20.21
2024-05-09T16:13:04.277Z,19.98
2024-05-09T16:14:37.458Z,20.12
2024-05-09T16:16:13.257Z,20.22
2024-05-09T16:17:49.088Z,20.16
2024-05-09T16:19:22.454Z,20.20
2024-05-09T16:21:00.320Z,19.94
2024-05-09T16:22:33.417Z,20.05
2024-05-09T16:24:07.298Z,20.10
2024-05-09T16:25:45.345Z,20.13
2024-05-09T16:27:19.297Z,19.91
2024-05-09T16:28:52.878Z,19.84
2024-05-09T16:30:34.503Z,19.77
2024-05-09T16:32:08.796Z,19.93
2024-05-09T16:33:47.623Z,19.89
2024-05-09T16:35:21.041Z,19.83
2024-05-09T16:36:56.084Z,19.80
2024-05-09T16:38:34.400Z,19.81
2024-05-09T16:40:21.406Z,19.80
2024-05-09T16:41:58.811Z,19.78
2024-05-09T16:43:34.474Z,19.82
2024-05-09T16:45:08.235Z,19.85
2024-05-09T16:46:41.492Z,19.83
2024-05-09T16:48:17.361Z,19.82
2024-05-09T16:49:53.131Z,19.64
2024-05-09T16:51:26.520Z,19.61
2024-05-09T16:53:02.482Z,19.68
2024-05-09T16:54:35.896Z,19.65
2024-05-09T16:56:11.491Z,19.60
2024-05-09T16:57:47.433Z,19.59
2024-05-09T16:59:23.150Z,19.62
2024-05-09T17:00:56.453Z,19.46
2024-05-09T17:02:32.692Z,19.47
2024-05-09T17:04:07.745Z,19.51
2024-05-09T17:05:45.969Z,19.44
2024-05-09T17:07:22.698Z,19.28
2024-05-09T17:08:59.094Z,19.46
2024-05-09T17:10:35.952Z,19.57
2024-05-09T17:12:11.906Z,19.45
2024-05-09T17:13:48.228Z,19.50
2024-05-09T17:15:24.027Z,19.51
2024-05-09T17:16:57.133Z,19.42
2024-05-09T17:18:33.522Z,19.47
2024-05-09T17:20:12.463Z,19.32
2024-05-09T17:21:53.842Z,19.38
2024-05-09T17:23:31.808Z,19.36
2024-05-09T17:25:09.365Z,19.19
2024-05-09T17:26:42.645Z,19.27
2024-05-09T17:28:15.884Z,19.11
2024-05-09T17:29:52.135Z,19.28
2024-05-09T17:31:25.291Z,19.23
2024-05-09T17:33:00.101Z,19.18
2024-05-09T17:34:35.895Z,19.17
2024-05-09T17:36:09.346Z,19.07
2024-05-09T17:37:47.591Z,19.03
2024-05-09T17:39:20.577Z,18.94
2024-05-09T17:40:56.598Z,18.88
2024-05-09T17:42:29.615Z,18.76
2024-05-09T17:44:05.050Z,18.67
2024-05-09T17:45:41.975Z,18.59
2024-05-09T17:47:15.492Z,18.62
2024-05-09T17:48:48.685Z,18.64
2024-05-09T17:50:31.216Z,18.67
2024-05-09T17:52:08.791Z,18.59
2024-05-09T17:53:47.999Z,18.57
2024-05-09T17:55:21.557Z,18.54
2024-05-09T17:56:54.841Z,18.48
2024-05-09T17:58:30.679Z,18.39
2024-05-09T18:00:07.031Z,18.37
2024-05-09T18:01:44.676Z,18.29
2024-05-09T18:03:20.362Z,18.24
2024-05-09T18:04:53.450Z,18.20
2024-05-09T18:06:26.603Z,18.02
2024-05-09T18:08:02.460Z,18.00
2024-05-09T18:09:38.023Z,17.89
2024-05-09T18:11:13.798Z,17.94
2024-05-09T18:12:47.094Z,17.90
2024-05-09T18:14:20.499Z,17.82
2024-05-09T18:15:56.121Z,17.72
2024-05-09T18:17:29.478Z,17.74
2024-05-09T18:19:05.413Z,17.60
2024-05-09T18:20:44.832Z,17.53
2024-05-09T18:22:19.165Z,17.58
2024-05-09T18:23:58.062Z,17.52
2024-05-09T18:25:35.236Z,17.55
2024-05-09T18:27:11.371Z,17.55
2024-05-09T18:28:45.214Z,17.56
2024-05-09T18:30:27.428Z,17.38
2024-05-09T18:32:08.128Z,17.41
2024-05-09T18:33:44.085Z,17.28
2024-05-09T18:35:17.121Z,17.18
2024-05-09T18:36:52.894Z,17.20
2024-05-09T18:38:27.157Z,17.22
2024-05-09T18:40:00.705Z,17.13
2024-05-09T18:41:38.979Z,17.05
2024-05-09T18:43:12.145Z,16.92
2024-05-09T18:44:45.905Z,16.90
2024-05-09T18:46:21.437Z,16.85
2024-05-09T18:47:55.222Z,16.81
2024-05-09T18:49:28.415Z,16.78
2024-05-09T18:51:05.627Z,16.80
2024-05-09T18:52:39.138Z,16.66
2024-05-09T18:54:12.803Z,16.63
2024-05-09T18:55:48.815Z,16.58
2024-05-09T18:57:24.932Z,16.52
2024-05-09T18:58:57.888Z,16.40
2024-05-09T19:00:37.046Z,16.47
2024-05-09T19:02:13.580Z,16.35
2024-05-09T19:03:50.454Z,16.25
2024-05-09T19:05:23.814Z,16.14
2024-05-09T19:06:59.078Z,16.02
2024-05-09T19:08:34.575Z,15.93
2024-05-09T19:10:21.511Z,15.98
2024-05-09T19:11:56.587Z,16.01
2024-05-09T19:13:34.998Z,15.88
2024-05-09T19:15:08.724Z,15.77
2024-05-09T19:16:42.281Z,15.86
2024-05-09T19:18:17.991Z,15.79
2024-05-09T19:19:52.543Z,15.58
2024-05-09T19:21:25.659Z,15.50
2024-05-09T19:23:01.488Z,15.45
2024-05-09T19:24:34.616Z,15.40
2024-05-09T19:26:08.506Z,15.29
2024-05-09T19:27:45.078Z,15.25
2024-05-09T19:29:21.127Z,14.95
2024-05-09T19:30:54.145Z,14.91
2024-05-09T19:32:29.842Z,14.98
2024-05-09T19:34:02.914Z,14.81
2024-05-09T19:35:36.356Z,14.67
2024-05-09T19:37:12.295Z,14.56
2024-05-09T19:38:45.568Z,14.72
2024-05-09T19:40:25.073Z,14.92
2024-05-09T19:42:07.641Z,14.72
2024-05-09T19:43:41.099Z,14.64
2024-05-09T19:45:20.283Z,14.51
2024-05-09T19:46:53.596Z,14.37
2024-05-09T19:48:29.923Z,14.31
2024-05-09T19:50:04.001Z,14.47
2024-05-09T19:51:39.415Z,14.18
2024-05-09T19:53:15.333Z,14.07
2024-05-09T19:54:50.115Z,13.95
2024-05-09T19:56:23.246Z,13.78
2024-05-09T19:58:00.028Z,13.73
2024-05-09T19:59:34.037Z,13.80
2024-05-09T20:01:10.202Z,13.85
2024-05-09T20:02:46.023Z,13.74
2024-05-09T20:04:19.165Z,13.73
2024-05-09T20:05:55.111Z,13.78
2024-05-09T20:07:28.867Z,13.76
2024-05-09T20:09:01.811Z,13.76
2024-05-09T20:10:37.551Z,13.74
2024-05-09T20:12:10.951Z,13.87
2024-05-09T20:13:44.465Z,13.74
2024-05-09T20:15:20.079Z,13.70
2024-05-09T20:16:57.207Z,13.68
2024-05-09T20:18:33.120Z,13.52
2024-05-09T20:20:13.715Z,13.54
2024-05-09T20:21:53.272Z,13.43
2024-05-09T20:23:29.211Z,13.34
2024-05-09T20:25:02.169Z,13.25
2024-05-09T20:26:35.625Z,13.06
2024-05-09T20:28:11.512Z,13.00
2024-05-09T20:29:44.863Z,12.85
2024-05-09T20:31:21.578Z,12.65
2024-05-09T20:33:00.816Z,12.50
2024-05-09T20:34:34.102Z,12.29
2024-05-09T20:36:07.331Z,12.26
2024-05-09T20:37:42.956Z,12.09
2024-05-09T20:39:18.207Z,12.01
2024-05-09T20:40:53.387Z,11.99
2024-05-09T20:42:29.066Z,11.82
2024-05-09T20:44:03.579Z,11.84
2024-05-09T20:45:37.204Z,11.82
2024-05-09T20:47:12.956Z,11.73